Time;durP1;ratioP1;P1;durP2;ratioP2;P2;SDS_P1;SDS_P2;PMS_P1;PMS_P2;Temp;Humidity;BMP_temperature;BMP_pressure;BME280_temperature;BME280_humidity;BME280_pressure;Samples;Min_cycle;Max_cycle;Signal;HPM_P1;HPM_P2
2022/03/06 00:00:08;;;;;;;51.73;25.97;;;;;;;1.76;65.79;102289.66;5029712;28;20109;-70
2022/03/06 00:02:34;;;;;;;46.73;25.30;;;;;;;1.74;66.20;102283.63;5031029;28;20017;-70
2022/03/06 00:04:59;;;;;;;50.37;24.93;;;;;;;1.70;65.77;102274.22;5031330;28;20035;-70
2022/03/06 00:07:24;;;;;;;48.53;25.03;;;;;;;1.69;65.92;102288.22;5030928;28;20125;-69
2022/03/06 00:09:50;;;;;;;49.43;25.43;;;;;;;1.65;66.03;102287.53;5030972;28;20021;-70
2022/03/06 00:12:15;;;;;;;48.07;24.80;;;;;;;1.65;66.11;102297.16;5030742;28;20037;-69
2022/03/06 00:14:40;;;;;;;52.50;26.20;;;;;;;1.60;66.00;102297.41;5031575;28;20460;-70
2022/03/06 00:17:06;;;;;;;48.20;25.50;;;;;;;1.58;66.04;102303.66;5026162;28;20037;-69
2022/03/06 00:19:31;;;;;;;50.37;25.47;;;;;;;1.58;66.11;102298.41;5030969;28;20017;-70
2022/03/06 00:21:56;;;;;;;52.00;25.07;;;;;;;1.57;66.36;102297.56;5024956;28;20536;-70
2022/03/06 00:24:22;;;;;;;47.00;24.93;;;;;;;1.57;66.33;102294.94;5031351;28;20067;-70
2022/03/06 00:26:47;;;;;;;52.43;25.50;;;;;;;1.54;66.38;102301.19;5030835;28;20025;-70
2022/03/06 00:29:13;;;;;;;48.13;24.17;;;;;;;1.52;66.53;102304.81;5029706;28;20041;-70
2022/03/06 00:31:39;;;;;;;47.13;24.73;;;;;;;1.50;66.54;102304.88;5030468;28;20053;-70
2022/03/06 00:34:04;;;;;;;46.80;23.80;;;;;;;1.45;66.37;102299.03;5030295;28;20056;-70
2022/03/06 00:36:30;;;;;;;47.13;24.03;;;;;;;1.46;66.59;102312.97;5026927;28;20075;-70
2022/03/06 00:38:55;;;;;;;47.70;24.37;;;;;;;1.43;66.43;102303.47;5029900;28;20025;-70
2022/03/06 00:41:22;;;;;;;48.00;24.30;;;;;;;1.43;66.70;102316.56;5030546;28;20061;-70
2022/03/06 00:43:48;;;;;;;47.77;24.17;;;;;;;1.42;66.76;102319.25;5031316;28;20045;-70
2022/03/06 00:46:13;;;;;;;49.07;24.27;;;;;;;1.43;66.85;102315.72;5029244;28;20033;-69
2022/03/06 00:48:38;;;;;;;45.60;24.50;;;;;;;1.36;66.86;102314.31;5026649;28;20028;-69
2022/03/06 00:51:04;;;;;;;44.37;23.63;;;;;;;1.36;66.83;102324.78;5029870;28;20021;-70
2022/03/06 00:53:29;;;;;;;49.17;25.23;;;;;;;1.33;66.86;102328.41;5030500;28;20093;-70
2022/03/06 00:55:54;;;;;;;50.80;25.10;;;;;;;1.31;66.89;102332.03;5030269;28;20033;-70
2022/03/06 00:58:19;;;;;;;47.83;24.63;;;;;;;1.29;67.13;102331.25;5029750;28;20036;-70
2022/03/06 01:00:47;;;;;;;47.93;24.27;;;;;;;1.27;67.21;102336.56;5029100;28;20033;-71
2022/03/06 01:03:18;;;;;;;49.27;24.73;;;;;;;1.24;67.28;102334.09;5029860;28;20108;-70
2022/03/06 01:05:44;;;;;;;46.90;24.07;;;;;;;1.22;67.33;102333.31;5029807;28;20107;-70
2022/03/06 01:08:09;;;;;;;47.33;23.73;;;;;;;1.19;67.32;102339.56;5023419;28;20084;-70
2022/03/06 01:10:36;;;;;;;49.10;24.00;;;;;;;1.20;67.50;102337.78;5027668;28;20017;-70
2022/03/06 01:13:03;;;;;;;48.30;24.47;;;;;;;1.17;67.60;102338.78;5028252;28;20528;-70
2022/03/06 01:15:29;;;;;;;44.40;23.70;;;;;;;1.11;67.62;102336.44;5029226;28;20119;-71
2022/03/06 01:17:54;;;;;;;44.77;23.27;;;;;;;1.09;67.74;102334.81;5026718;28;20087;-70
2022/03/06 01:20:20;;;;;;;44.80;23.87;;;;;;;1.12;67.89;102339.91;5029055;28;20064;-70
2022/03/06 01:22:46;;;;;;;45.03;24.13;;;;;;;1.09;67.93;102337.44;5029295;28;20366;-70
2022/03/06 01:25:12;;;;;;;48.30;23.63;;;;;;;1.08;68.03;102338.34;5029244;28;20025;-70
2022/03/06 01:27:38;;;;;;;47.73;24.00;;;;;;;1.06;68.05;102334.97;5029181;28;20049;-70
2022/03/06 01:30:05;;;;;;;45.33;23.10;;;;;;;1.06;68.22;102338.44;5027871;28;20485;-70
2022/03/06 01:32:32;;;;;;;47.90;23.57;;;;;;;1.06;68.34;102346.28;5029365;28;20435;-70
2022/03/06 01:34:57;;;;;;;45.33;23.30;;;;;;;1.06;68.40;102341.03;5028758;28;20029;-70
2022/03/06 01:37:22;;;;;;;48.97;24.27;;;;;;;1.04;68.37;102347.28;5028765;28;20037;-70
2022/03/06 01:39:48;;;;;;;45.47;23.03;;;;;;;1.06;68.40;102348.03;5028000;28;20480;-70
2022/03/06 01:42:13;;;;;;;45.63;23.97;;;;;;;1.01;68.50;102350.03;5028199;28;20082;-70
2022/03/06 01:44:38;;;;;;;45.60;23.60;;;;;;;0.95;68.36;102347.72;5028380;28;20053;-70
2022/03/06 01:47:04;;;;;;;46.90;24.73;;;;;;;1.02;68.50;102357.81;5028913;28;20060;-70
2022/03/06 01:49:29;;;;;;;44.13;23.00;;;;;;;0.99;68.56;102354.50;5027372;28;20491;-70
2022/03/06 01:51:54;;;;;;;48.27;23.13;;;;;;;1.01;68.58;102350.88;5026333;28;20389;-70
2022/03/06 01:54:20;;;;;;;42.87;22.77;;;;;;;1.00;68.68;102354.41;5028540;28;20393;-70
2022/03/06 01:56:45;;;;;;;46.90;24.03;;;;;;;0.99;68.62;102351.88;5029010;28;20477;-70
2022/03/06 01:59:10;;;;;;;44.27;23.37;;;;;;;0.98;68.45;102351.03;5027343;28;20025;-70
2022/03/06 02:01:36;;;;;;;50.63;24.33;;;;;;;0.94;68.68;102346.88;5029071;28;20025;-70
2022/03/06 02:04:01;;;;;;;47.00;23.97;;;;;;;0.96;68.72;102349.41;5028322;28;20539;-70
2022/03/06 02:06:27;;;;;;;45.60;23.73;;;;;;;0.97;68.72;102353.72;5029024;28;20041;-70
2022/03/06 02:08:53;;;;;;;45.00;23.93;;;;;;;0.93;68.80;102361.72;5026802;28;20029;-70
2022/03/06 02:11:20;;;;;;;45.30;23.40;;;;;;;0.91;68.90;102354.84;5027922;28;20112;-70
2022/03/06 02:13:46;;;;;;;43.03;22.97;;;;;;;0.89;68.76;102360.16;5027525;28;20175;-70
2022/03/06 02:16:11;;;;;;;44.30;23.43;;;;;;;0.89;68.85;102359.31;5027643;28;20132;-70
2022/03/06 02:18:37;;;;;;;46.77;23.63;;;;;;;0.85;68.92;102363.81;5027770;28;20503;-70
2022/03/06 02:21:11;;;;;;;46.43;23.63;;;;;;;0.81;68.97;102358.78;5028247;28;20028;-71
2022/03/06 02:23:37;;;;;;;49.07;23.03;;;;;;;0.80;69.00;102362.31;5028385;28;20029;-70
2022/03/06 02:26:03;;;;;;;45.87;22.60;;;;;;;0.81;68.99;102372.72;5023858;28;20063;-70
2022/03/06 02:28:28;;;;;;;46.30;22.93;;;;;;;0.70;69.08;102354.06;5027630;28;20414;-70
2022/03/06 02:30:55;;;;;;;46.73;23.53;;;;;;;0.74;68.90;102368.69;5026970;28;20513;-70
2022/03/06 02:33:20;;;;;;;44.93;22.93;;;;;;;0.68;68.96;102371.59;5028093;28;20030;-70
2022/03/06 02:35:46;;;;;;;43.23;22.53;;;;;;;0.67;68.96;102367.28;5028440;28;20027;-70
2022/03/06 02:38:11;;;;;;;42.73;21.97;;;;;;;0.66;69.06;102372.56;5027675;28;20033;-70
2022/03/06 02:40:41;;;;;;;46.97;23.33;;;;;;;0.63;68.97;102370.09;5027280;28;20025;-70
2022/03/06 02:43:06;;;;;;;;;;;;;;;0.72;69.00;102381.00;5027611;28;20041;-70
2022/03/06 02:45:32;;;;;;;41.77;21.30;;;;;;;0.63;69.13;102373.56;5028153;28;19912;-70
2022/03/06 02:47:57;;;;;;;39.63;21.87;;;;;;;0.59;69.23;102372.00;5027600;28;20029;-70
2022/03/06 02:50:27;;;;;;;43.23;22.63;;;;;;;0.57;69.41;102360.75;5025833;28;20532;-70
2022/03/06 02:52:53;;;;;;;45.13;22.77;;;;;;;0.59;69.44;102374.63;5027635;28;20029;-69
2022/03/06 02:55:19;;;;;;;45.00;23.20;;;;;;;0.54;69.51;102366.13;5026884;28;20104;-70
2022/03/06 02:57:46;;;;;;;40.20;22.20;;;;;;;0.53;69.52;102369.66;5022449;28;20047;-70
2022/03/06 03:00:13;;;;;;;43.07;22.77;;;;;;;0.54;69.68;102373.97;5027579;28;20496;-70
2022/03/06 03:02:39;;;;;;;42.63;22.43;;;;;;;0.51;69.79;102368.88;5022611;28;20044;-70
2022/03/06 03:05:06;;;;;;;42.77;22.70;;;;;;;0.51;69.82;102374.09;5024747;28;20489;-70
2022/03/06 03:07:31;;;;;;;40.50;21.40;;;;;;;0.49;69.96;102368.09;5027150;28;20021;-70
2022/03/06 03:09:56;;;;;;;41.90;22.53;;;;;;;0.51;69.97;102380.16;5025872;28;20038;-70
2022/03/06 03:12:22;;;;;;;41.83;22.30;;;;;;;0.48;70.06;102380.31;5026408;28;20048;-70
2022/03/06 03:14:47;;;;;;;40.67;22.27;;;;;;;0.41;70.17;102378.88;5022326;28;20032;-70
2022/03/06 03:17:12;;;;;;;43.83;22.20;;;;;;;0.44;70.30;102380.53;5025690;28;20029;-70
2022/03/06 03:19:38;;;;;;;36.77;20.93;;;;;;;0.40;70.17;102371.97;5026002;28;20048;-70
2022/03/06 03:22:03;;;;;;;40.87;21.23;;;;;;;0.39;70.34;102366.81;5026607;28;20561;-70
2022/03/06 03:24:29;;;;;;;42.60;22.00;;;;;;;0.30;70.38;102361.09;5026217;28;20028;-70
2022/03/06 03:26:54;;;;;;;39.53;21.57;;;;;;;0.35;70.38;102367.88;5025287;28;20393;-70
2022/03/06 03:29:19;;;;;;;40.80;22.37;;;;;;;0.33;70.33;102362.72;5025534;28;20026;-69
2022/03/06 03:31:45;;;;;;;41.00;21.97;;;;;;;0.36;70.40;102377.41;5026217;28;20029;-70
2022/03/06 03:34:10;;;;;;;37.53;21.77;;;;;;;0.30;70.50;102371.53;5026676;28;20025;-69
2022/03/06 03:36:36;;;;;;;43.60;22.17;;;;;;;0.33;70.57;102378.38;5026555;28;20040;-69
2022/03/06 03:39:02;;;;;;;39.20;20.67;;;;;;;0.29;70.57;102375.06;5025530;28;20021;-70
2022/03/06 03:41:28;;;;;;;41.63;22.03;;;;;;;0.29;70.52;102379.44;5026395;28;20025;-70
2022/03/06 03:43:53;;;;;;;40.87;22.23;;;;;;;0.26;70.79;102376.94;5026475;28;20014;-70
2022/03/06 03:46:19;;;;;;;42.47;21.90;;;;;;;0.25;70.71;102385.69;5026209;28;20017;-70
2022/03/06 03:48:44;;;;;;;36.60;21.37;;;;;;;0.24;70.75;102389.22;5026138;28;20057;-70
2022/03/06 03:51:10;;;;;;;38.40;21.67;;;;;;;0.22;70.83;102385.81;5025965;28;20500;-70
2022/03/06 03:53:36;;;;;;;37.40;20.70;;;;;;;0.19;70.85;102386.81;5026264;28;20053;-69
2022/03/06 03:56:01;;;;;;;38.60;21.13;;;;;;;0.18;70.92;102385.09;5024314;28;20029;-69
2022/03/06 03:58:27;;;;;;;40.70;21.53;;;;;;;0.20;70.92;102387.66;5025381;28;20111;-69
2022/03/06 04:00:54;;;;;;;38.73;21.63;;;;;;;0.16;71.07;102381.72;5025388;28;20122;-69
2022/03/06 04:03:20;;;;;;;40.53;21.53;;;;;;;0.15;71.04;102389.63;5026438;28;20057;-69
2022/03/06 04:05:45;;;;;;;39.37;20.90;;;;;;;0.13;70.99;102381.84;5025390;28;20386;-70
2022/03/06 04:08:11;;;;;;;35.57;21.20;;;;;;;0.09;71.06;102392.50;5025347;28;20064;-70
2022/03/06 04:10:36;;;;;;;40.77;22.27;;;;;;;0.09;71.15;102395.97;5025408;28;20021;-70
2022/03/06 04:13:02;;;;;;;37.30;21.50;;;;;;;0.08;71.09;102393.41;5026312;28;20017;-70
2022/03/06 04:15:27;;;;;;;40.63;21.90;;;;;;;0.05;71.25;102394.41;5025976;28;20033;-70
2022/03/06 04:17:53;;;;;;;36.73;20.63;;;;;;;0.07;71.30;102396.94;5026697;28;20026;-70
2022/03/06 04:20:18;;;;;;;36.83;19.83;;;;;;;0.02;71.26;102398.91;5024881;28;20485;-70
2022/03/06 04:22:43;;;;;;;39.77;21.83;;;;;;;0.01;71.31;102398.06;5026389;28;20017;-70
2022/03/06 04:25:09;;;;;;;38.23;20.63;;;;;;;-0.02;71.26;102398.16;5024752;28;20099;-70
2022/03/06 04:27:34;;;;;;;36.90;21.80;;;;;;;-0.05;71.24;102409.56;5026197;28;20033;-70
2022/03/06 04:29:59;;;;;;;35.47;21.00;;;;;;;-0.17;71.21;102393.59;5024372;28;20489;-70
2022/03/06 04:32:24;;;;;;;37.63;21.67;;;;;;;-0.10;71.38;102413.28;5026252;28;20087;-70
2022/03/06 04:34:51;;;;;;;36.73;20.77;;;;;;;-0.11;71.56;102420.28;5025690;28;20036;-70
2022/03/06 04:37:16;;;;;;;35.40;20.97;;;;;;;-0.14;71.48;102423.03;5026196;28;20037;-70
2022/03/06 04:39:42;;;;;;;40.53;21.33;;;;;;;-0.15;71.57;102429.16;5028405;28;20175;-70
2022/03/06 04:42:07;;;;;;;37.90;21.83;;;;;;;-0.17;71.74;102430.97;5029279;28;20033;-70
2022/03/06 04:44:32;;;;;;;39.80;22.00;;;;;;;-0.17;71.86;102437.97;5029129;28;20028;-70
2022/03/06 04:46:58;;;;;;;35.67;20.60;;;;;;;-0.24;71.64;102433.91;5029802;28;20025;-70
2022/03/06 04:49:23;;;;;;;33.53;20.47;;;;;;;-0.29;71.64;102430.63;5028397;28;20082;-70
2022/03/06 04:51:49;;;;;;;37.07;20.77;;;;;;;-0.30;71.79;102437.59;5029612;28;20045;-69
2022/03/06 04:54:14;;;;;;;38.77;21.90;;;;;;;-0.24;71.72;102452.19;5027941;28;20030;-70
2022/03/06 04:56:39;;;;;;;35.47;20.80;;;;;;;-0.25;71.66;102455.72;5029552;28;20025;-70
2022/03/06 04:59:04;;;;;;;36.13;21.47;;;;;;;-0.25;71.83;102458.31;5028224;28;20036;-70
2022/03/06 05:01:30;;;;;;;33.80;20.77;;;;;;;-0.28;71.89;102448.00;5029658;28;20033;-70
2022/03/06 05:03:56;;;;;;;40.87;21.80;;;;;;;-0.28;72.00;102454.06;5029085;28;20040;-70
2022/03/06 05:06:22;;;;;;;37.33;21.47;;;;;;;-0.29;72.10;102456.72;5029244;28;20030;-70
2022/03/06 05:08:48;;;;;;;36.17;21.93;;;;;;;-0.30;71.98;102461.09;5028132;28;20064;-70
2022/03/06 05:11:13;;;;;;;34.43;21.00;;;;;;;-0.33;71.99;102458.59;5029398;28;20048;-69
2022/03/06 05:13:38;;;;;;;36.97;21.67;;;;;;;-0.34;72.15;102456.91;5029034;28;20139;-70
2022/03/06 05:16:03;;;;;;;34.33;21.20;;;;;;;-0.28;72.17;102463.66;5028349;28;20116;-70
2022/03/06 05:18:29;;;;;;;35.13;21.27;;;;;;;-0.29;72.15;102470.63;5029154;28;20037;-70
2022/03/06 05:20:54;;;;;;;35.93;21.30;;;;;;;-0.31;72.16;102464.59;5028318;28;20475;-70
2022/03/06 05:23:20;;;;;;;34.07;21.13;;;;;;;-0.35;72.14;102466.50;5028802;28;20102;-70
2022/03/06 05:25:46;;;;;;;32.80;20.63;;;;;;;-0.38;72.12;102477.06;5029301;28;20441;-70
2022/03/06 05:28:12;;;;;;;35.27;21.13;;;;;;;-0.40;72.11;102475.41;5028644;28;20096;-70
2022/03/06 05:30:38;;;;;;;35.13;21.30;;;;;;;-0.41;72.19;102473.72;5027916;28;20496;-70
2022/03/06 05:33:03;;;;;;;31.73;20.23;;;;;;;-0.42;72.09;102470.25;5028635;28;20028;-70
2022/03/06 05:35:29;;;;;;;37.90;20.83;;;;;;;-0.45;72.27;102465.16;5028360;28;20040;-70
2022/03/06 05:37:55;;;;;;;32.00;20.50;;;;;;;-0.45;72.30;102482.59;5027488;28;20437;-70
2022/03/06 05:40:20;;;;;;;34.93;20.37;;;;;;;-0.43;72.24;102485.97;5027250;28;20032;-69
2022/03/06 05:42:46;;;;;;;37.83;21.63;;;;;;;-0.53;72.43;102475.06;5027857;28;20045;-69
2022/03/06 05:45:11;;;;;;;36.20;21.40;;;;;;;-0.49;72.40;102487.06;5028526;28;20416;-69
2022/03/06 05:47:37;;;;;;;37.40;20.83;;;;;;;-0.50;72.43;102495.81;5028363;28;20114;-70
2022/03/06 05:50:04;;;;;;;34.40;21.27;;;;;;;-0.51;72.38;102494.09;5024694;28;20021;-70
2022/03/06 05:52:30;;;;;;;35.73;20.63;;;;;;;-0.53;72.53;102488.09;5026357;28;20025;-69
2022/03/06 05:54:55;;;;;;;36.07;22.03;;;;;;;-0.51;72.21;102482.81;5026356;28;20036;-70
2022/03/06 05:57:20;;;;;;;34.20;21.10;;;;;;;-0.60;72.52;102478.78;5026151;28;20306;-70
2022/03/06 05:59:45;;;;;;;36.73;20.90;;;;;;;-0.60;72.62;102478.78;5023637;28;20031;-69
2022/03/06 06:02:11;;;;;;;35.87;21.53;;;;;;;-0.56;72.65;102489.97;5027084;28;20389;-70
2022/03/06 06:04:36;;;;;;;35.90;20.93;;;;;;;-0.57;72.53;102494.34;5027734;28;20025;-70
2022/03/06 06:07:01;;;;;;;33.40;20.37;;;;;;;-0.59;72.61;102493.53;5027841;28;20335;-70
2022/03/06 06:09:26;;;;;;;35.70;21.00;;;;;;;-0.58;72.79;102503.06;5022149;28;20025;-70
2022/03/06 06:11:52;;;;;;;33.50;20.93;;;;;;;-0.60;72.50;102494.44;5016550;28;20026;-69
2022/03/06 06:14:17;;;;;;;37.50;21.77;;;;;;;-0.58;72.58;102505.66;5028457;28;20034;-70
2022/03/06 06:16:43;;;;;;;33.73;21.03;;;;;;;-0.61;72.55;102508.41;5027705;28;20025;-69
2022/03/06 06:19:08;;;;;;;35.20;21.00;;;;;;;-0.62;72.68;102509.31;5025003;28;20049;-70
2022/03/06 06:21:33;;;;;;;36.03;22.07;;;;;;;-0.62;72.79;102512.75;5027881;28;20119;-70
2022/03/06 06:23:59;;;;;;;35.17;20.87;;;;;;;-0.65;72.73;102514.63;5033070;28;20075;-70
2022/03/06 06:26:24;;;;;;;33.63;20.63;;;;;;;-0.66;72.83;102515.53;5025053;28;20397;-69
2022/03/06 06:28:55;;;;;;;34.03;21.13;;;;;;;-0.65;72.80;102519.84;5023448;28;20079;-69
2022/03/06 06:31:21;;;;;;;34.83;20.77;;;;;;;-0.63;72.78;102526.72;5026328;28;20033;-69
2022/03/06 06:33:47;;;;;;;36.47;21.20;;;;;;;-0.65;72.74;102533.75;5025167;28;20026;-70
2022/03/06 06:36:12;;;;;;;32.67;20.77;;;;;;;-0.65;72.65;102525.06;5030147;28;20045;-70
2022/03/06 06:38:37;;;;;;;34.60;20.60;;;;;;;-0.66;72.77;102520.75;5029070;28;20060;-69
2022/03/06 06:41:02;;;;;;;32.40;20.53;;;;;;;-0.60;73.06;102523.13;5037233;28;20295;-70
2022/03/06 06:43:29;;;;;;;34.03;21.17;;;;;;;-0.53;73.11;102529.84;5026697;28;20042;-69
2022/03/06 06:45:54;;;;;;;32.17;20.57;;;;;;;-0.48;73.12;102533.13;5027783;28;20404;-70
2022/03/06 06:48:20;;;;;;;35.17;20.97;;;;;;;-0.42;73.27;102538.13;5024947;28;20477;-70
2022/03/06 06:50:45;;;;;;;32.07;20.63;;;;;;;-0.36;73.12;102544.84;5025671;28;20025;-70
2022/03/06 06:53:10;;;;;;;30.97;20.40;;;;;;;-0.32;73.28;102546.44;5025335;28;20033;-69
2022/03/06 06:55:36;;;;;;;34.93;20.60;;;;;;;-0.21;73.50;102543.44;5025902;28;20021;-70
2022/03/06 06:58:03;;;;;;;33.37;21.17;;;;;;;-0.07;73.29;102556.78;5023584;28;20547;-70
2022/03/06 07:00:28;;;;;;;34.30;20.50;;;;;;;0.04;73.18;102559.00;5025723;28;20033;-70
2022/03/06 07:02:54;;;;;;;34.67;21.10;;;;;;;0.01;73.32;102556.50;5025147;28;20025;-69
2022/03/06 07:05:19;;;;;;;32.60;20.53;;;;;;;0.11;73.03;102561.28;5027095;28;20092;-70
2022/03/06 07:07:44;;;;;;;31.40;20.03;;;;;;;0.20;72.78;102566.13;5026196;28;20712;-69
2022/03/06 07:10:10;;;;;;;35.60;20.63;;;;;;;0.25;72.60;102564.19;5026114;28;20029;-68
2022/03/06 07:12:47;;;;;;;33.13;20.40;;;;;;;0.34;72.68;102569.97;5026735;28;20469;-69
2022/03/06 07:15:13;;;;;;;35.57;20.73;;;;;;;0.42;72.54;102562.66;5026254;28;20489;-69
2022/03/06 07:17:40;;;;;;;32.20;20.13;;;;;;;0.52;72.61;102566.59;5026139;28;20461;-69
2022/03/06 07:20:06;;;;;;;35.13;20.70;;;;;;;0.54;72.05;102564.75;5025977;28;20056;-70
2022/03/06 07:22:31;;;;;;;30.13;19.77;;;;;;;0.62;72.06;102573.16;5023299;28;20021;-69
2022/03/06 07:24:57;;;;;;;30.10;19.97;;;;;;;0.69;72.01;102571.13;5026630;28;20116;-70
2022/03/06 07:27:22;;;;;;;32.17;19.80;;;;;;;0.76;72.00;102583.88;5026391;28;20505;-70
2022/03/06 07:29:47;;;;;;;33.43;19.47;;;;;;;0.82;71.88;102581.00;5025569;28;20112;-70
2022/03/06 07:32:13;;;;;;;33.17;19.43;;;;;;;0.98;71.61;102583.81;5026823;28;20488;-69
2022/03/06 07:34:39;;;;;;;32.03;19.43;;;;;;;1.03;71.49;102583.63;5025477;28;20029;-69
2022/03/06 07:37:04;;;;;;;31.30;19.27;;;;;;;1.13;71.38;102590.13;5022504;28;20104;-70
2022/03/06 07:39:30;;;;;;;29.00;19.87;;;;;;;1.26;71.22;102596.56;5025641;28;20037;-70
2022/03/06 07:41:55;;;;;;;31.93;19.10;;;;;;;1.31;70.96;102596.34;5026130;28;20460;-70
2022/03/06 07:44:20;;;;;;;30.83;19.33;;;;;;;1.41;70.95;102600.25;5024365;28;20056;-69
2022/03/06 07:46:45;;;;;;;29.23;19.17;;;;;;;1.49;70.69;102606.00;5027356;28;20425;-69
2022/03/06 07:49:11;;;;;;;29.43;19.53;;;;;;;1.57;70.34;102595.19;5030301;28;20412;-69
2022/03/06 07:51:36;;;;;;;29.03;19.03;;;;;;;1.63;70.23;102594.91;5026608;28;20025;-69
2022/03/06 07:54:02;;;;;;;30.30;19.03;;;;;;;1.73;70.27;102607.50;5026574;28;20401;-69
2022/03/06 07:56:27;;;;;;;29.30;19.37;;;;;;;1.89;70.43;102610.28;5022503;28;20026;-69
2022/03/06 07:58:52;;;;;;;27.47;19.23;;;;;;;1.94;69.89;102610.06;5023889;28;20488;-69
2022/03/06 08:01:18;;;;;;;27.90;19.03;;;;;;;2.01;69.59;102614.09;5025228;28;20347;-69
2022/03/06 08:03:43;;;;;;;31.37;19.43;;;;;;;2.06;69.52;102619.97;5027371;28;20064;-69
2022/03/06 08:06:09;;;;;;;28.17;19.03;;;;;;;2.07;69.21;102622.53;5023839;28;20049;-70
2022/03/06 08:08:35;;;;;;;26.40;18.30;;;;;;;2.10;68.99;102622.38;5024408;28;20405;-70
2022/03/06 08:11:00;;;;;;;28.13;18.43;;;;;;;2.18;68.83;102635.13;5026313;28;20057;-70
2022/03/06 08:13:25;;;;;;;27.40;19.10;;;;;;;2.26;69.07;102621.63;5028231;28;20112;-70
2022/03/06 08:15:51;;;;;;;29.10;18.47;;;;;;;2.32;68.51;102631.84;5029218;28;20029;-69
2022/03/06 08:18:16;;;;;;;28.10;19.00;;;;;;;2.32;68.48;102630.09;5029614;28;20030;-69
2022/03/06 08:20:41;;;;;;;27.40;18.40;;;;;;;2.35;68.32;102635.19;5028252;28;20104;-70
2022/03/06 08:23:07;;;;;;;28.33;19.13;;;;;;;2.47;67.97;102647.69;5029767;28;20064;-69
2022/03/06 08:25:32;;;;;;;28.43;18.43;;;;;;;2.47;67.96;102644.22;5029475;28;20481;-70
2022/03/06 08:27:57;;;;;;;26.10;18.70;;;;;;;2.51;68.11;102650.16;5029605;28;20088;-69
2022/03/06 08:30:22;;;;;;;28.73;18.20;;;;;;;2.50;67.84;102649.31;5022739;28;20052;-69
2022/03/06 08:32:48;;;;;;;29.00;19.00;;;;;;;2.56;68.04;102641.13;5027693;28;20041;-69
2022/03/06 08:35:13;;;;;;;28.23;19.40;;;;;;;2.62;67.87;102650.50;5028804;28;20478;-68
2022/03/06 08:37:38;;;;;;;26.57;18.63;;;;;;;2.69;67.95;102651.91;5030338;28;20087;-69
2022/03/06 08:40:05;;;;;;;27.03;18.80;;;;;;;2.74;67.51;102657.75;5029215;28;20026;-69
2022/03/06 08:42:30;;;;;;;26.03;18.53;;;;;;;2.78;67.40;102656.69;5029777;28;20064;-69
2022/03/06 08:44:56;;;;;;;28.23;19.20;;;;;;;2.87;67.32;102661.47;5030160;28;20049;-69
2022/03/06 08:47:21;;;;;;;31.30;17.97;;;;;;;2.89;67.64;102664.00;5028544;28;20033;-69
2022/03/06 08:49:46;;;;;;;26.27;18.07;;;;;;;2.89;67.23;102664.91;5029075;28;20029;-70
2022/03/06 08:52:11;;;;;;;26.10;17.77;;;;;;;2.83;67.04;102644.19;5029109;28;20029;-69
2022/03/06 08:54:37;;;;;;;30.50;18.63;;;;;;;2.95;67.01;102659.34;5029022;28;20485;-70
2022/03/06 08:57:03;;;;;;;26.67;17.93;;;;;;;3.01;66.78;102664.28;5029431;28;20021;-70
2022/03/06 08:59:29;;;;;;;29.30;18.83;;;;;;;3.09;66.99;102666.50;5029291;28;20030;-69
2022/03/06 09:01:55;;;;;;;23.07;17.03;;;;;;;3.14;66.89;102667.13;5023646;28;20029;-70
2022/03/06 09:04:24;;;;;;;25.33;17.93;;;;;;;3.23;66.76;102664.03;5029668;28;20033;-70
2022/03/06 09:06:50;;;;;;;24.98;18.13;;;;;;;3.31;66.73;102667.13;5029148;28;20058;-70
2022/03/06 09:09:15;;;;;;;24.00;17.43;;;;;;;3.36;66.56;102661.63;5028812;28;20128;-70
2022/03/06 09:11:41;;;;;;;24.97;17.63;;;;;;;3.43;66.27;102673.50;5029153;28;20068;-70
2022/03/06 09:14:07;;;;;;;30.47;17.63;;;;;;;3.43;66.25;102660.38;5029569;28;20129;-70
2022/03/06 09:16:32;;;;;;;26.60;16.97;;;;;;;3.54;66.18;102665.09;5029124;28;20028;-69
2022/03/06 09:18:57;;;;;;;25.07;16.87;;;;;;;3.58;66.07;102664.00;5028182;28;20553;-69
2022/03/06 09:21:23;;;;;;;23.13;16.40;;;;;;;3.62;66.08;102663.75;5029631;28;20078;-69
2022/03/06 09:23:48;;;;;;;23.33;17.00;;;;;;;3.69;65.83;102654.59;5027602;28;20025;-69
2022/03/06 09:26:13;;;;;;;23.87;17.63;;;;;;;3.76;65.72;102660.41;5028716;28;20478;-70
2022/03/06 09:28:38;;;;;;;25.87;17.47;;;;;;;3.78;65.79;102660.31;5027883;28;20032;-69
2022/03/06 09:31:04;;;;;;;23.23;16.80;;;;;;;3.82;65.41;102664.47;5029056;28;20260;-70
2022/03/06 09:33:29;;;;;;;23.70;16.77;;;;;;;3.84;65.21;102663.47;5027078;28;20769;-70
2022/03/06 09:35:54;;;;;;;24.27;16.87;;;;;;;3.90;65.34;102665.75;5029563;28;20025;-69
2022/03/06 09:38:19;;;;;;;23.93;16.53;;;;;;;3.93;65.04;102665.59;5028004;28;20064;-70
2022/03/06 09:40:45;;;;;;;24.10;16.40;;;;;;;4.06;65.12;102671.03;5028466;28;20086;-70
2022/03/06 09:43:15;;;;;;;22.63;15.70;;;;;;;4.14;64.88;102662.72;5027579;28;20496;-68
2022/03/06 09:45:42;;;;;;;24.40;15.70;;;;;;;4.25;64.72;102662.97;5028713;28;20491;-70
2022/03/06 09:48:09;;;;;;;24.03;16.23;;;;;;;4.38;64.70;102664.00;5028669;28;20056;-70
2022/03/06 09:50:35;;;;;;;21.97;16.30;;;;;;;4.48;64.48;102657.28;5027219;28;20037;-69
2022/03/06 09:53:00;;;;;;;23.23;15.80;;;;;;;4.60;64.20;102661.84;5026419;28;20121;-70
2022/03/06 09:55:27;;;;;;;22.17;15.20;;;;;;;4.64;63.73;102662.53;5031252;28;20061;-70
2022/03/06 09:57:55;;;;;;;23.10;15.93;;;;;;;4.66;63.38;102665.94;5029799;28;20029;-69
2022/03/06 10:00:20;;;;;;;21.47;15.30;;;;;;;4.71;63.37;102661.25;5027521;28;20052;-69
2022/03/06 10:03:00;;;;;;;20.17;14.90;;;;;;;4.86;63.46;102664.75;5023825;28;20633;-70
2022/03/06 10:05:37;;;;;;;20.97;14.90;;;;;;;4.88;63.16;102655.00;5023554;28;20025;-70
2022/03/06 10:08:18;;;;;;;20.30;15.03;;;;;;;4.96;62.79;102643.09;5023127;28;20021;-69
2022/03/06 10:10:45;;;;;;;22.50;14.80;;;;;;;5.06;62.49;102650.44;5022271;28;20068;-69
2022/03/06 10:13:37;;;;;;;19.53;13.83;;;;;;;5.18;62.00;102666.34;5028965;28;20025;-69
2022/03/06 10:16:04;;;;;;;19.60;14.37;;;;;;;5.25;61.99;102665.09;5028081;28;20029;-69
2022/03/06 10:18:32;;;;;;;19.13;13.70;;;;;;;5.33;61.46;102656.72;5027504;28;20296;-68
2022/03/06 10:21:11;;;;;;;18.67;13.37;;;;;;;5.46;61.52;102659.44;5028368;28;20370;-69
2022/03/06 10:23:38;;;;;;;19.97;14.03;;;;;;;5.52;61.20;102659.09;5034195;28;20037;-69
2022/03/06 10:26:09;;;;;;;20.23;13.90;;;;;;;5.59;61.36;102657.78;5031965;28;20028;-69
2022/03/06 10:28:56;;;;;;;18.67;13.47;;;;;;;5.68;61.30;102661.63;5026992;28;20021;-69
2022/03/06 10:31:24;;;;;;;17.57;12.97;;;;;;;5.63;60.66;102661.91;5026955;28;20120;-69
2022/03/06 10:34:07;;;;;;;20.43;13.23;;;;;;;5.67;60.36;102663.41;5030049;28;20037;-69
2022/03/06 10:36:36;;;;;;;19.03;13.60;;;;;;;5.70;60.38;102668.50;5027213;28;20036;-69
2022/03/06 10:39:03;;;;;;;17.73;13.03;;;;;;;5.71;60.04;102667.56;5020891;28;20439;-69
2022/03/06 10:41:41;;;;;;;21.07;13.63;;;;;;;5.74;60.42;102662.09;5027261;28;20033;-69
2022/03/06 10:44:09;;;;;;;21.03;13.03;;;;;;;5.76;60.14;102660.19;5027846;28;20029;-69
2022/03/06 10:46:36;;;;;;;18.03;12.53;;;;;;;5.79;59.79;102654.78;5027240;28;20028;-69
2022/03/06 10:49:15;;;;;;;18.87;12.77;;;;;;;5.81;59.50;102658.16;5026768;28;20029;-70
2022/03/06 10:51:46;;;;;;;17.70;12.70;;;;;;;5.82;59.34;102651.94;5021998;28;20033;-69
2022/03/06 10:54:14;;;;;;;18.93;13.17;;;;;;;5.86;58.90;102648.16;5032694;28;20041;-69
2022/03/06 10:56:40;;;;;;;16.97;12.90;;;;;;;5.92;58.59;102657.50;5030647;28;20068;-69
2022/03/06 10:59:06;;;;;;;18.13;13.37;;;;;;;5.91;58.41;102658.44;5031295;28;20028;-69
2022/03/06 11:01:33;;;;;;;17.57;12.23;;;;;;;5.90;58.21;102656.75;5038409;28;20025;-69
2022/03/06 11:04:03;;;;;;;18.23;12.73;;;;;;;5.92;57.76;102654.88;5027774;28;20032;-70
2022/03/06 11:06:32;;;;;;;18.87;13.37;;;;;;;5.89;57.67;102645.38;5024246;28;20049;-70
2022/03/06 11:08:57;;;;;;;17.67;13.00;;;;;;;5.98;57.59;102654.47;5025096;28;20108;-69
2022/03/06 11:11:23;;;;;;;18.23;12.57;;;;;;;5.94;57.55;102647.72;5025448;28;20108;-69